createdAt,value
2019-02-20T05:57:56.324Z,86.96
2019-02-20T06:00:56.299Z,87.58
2019-02-20T06:05:56.254Z,87.79
2019-02-20T06:06:56.226Z,88.20
2019-02-20T06:07:56.230Z,87.79
2019-02-20T06:08:56.218Z,87.89
2019-02-20T06:09:56.296Z,87.48
2019-02-20T06:10:56.186Z,87.23
2019-02-20T06:11:56.187Z,87.44
2019-02-20T06:12:56.163Z,87.34
2019-02-20T06:13:56.151Z,87.65
2019-02-20T06:14:56.141Z,87.37
2019-02-20T06:15:56.624Z,87.27
2019-02-20T06:16:56.129Z,87.96
2019-02-20T06:17:56.104Z,87.79
2019-02-20T06:18:56.102Z,87.03
2019-02-20T06:19:56.083Z,87.13
2019-02-20T06:20:56.075Z,86.82
2019-02-20T06:21:56.072Z,86.92
2019-02-20T06:22:56.058Z,86.51
2019-02-20T06:23:56.035Z,86.92
2019-02-20T06:24:56.034Z,86.61
2019-02-20T06:25:56.036Z,86.92
2019-02-20T06:26:56.013Z,87.13
2019-02-20T06:27:56.002Z,87.13
2019-02-20T06:28:55.993Z,87.23
2019-02-20T06:29:55.986Z,87.13
2019-02-20T06:30:56.204Z,87.27
2019-02-20T06:31:55.987Z,87.17
2019-02-20T06:32:55.971Z,87.13
2019-02-20T06:33:56.071Z,87.37
2019-02-20T06:34:55.957Z,87.27
2019-02-20T06:35:55.916Z,87.17
2019-02-20T06:36:55.894Z,86.75
2019-02-20T06:37:58.587Z,87.52
2019-02-20T06:38:55.885Z,88.04
2019-02-20T06:39:55.894Z,88.66
2019-02-20T06:40:55.901Z,88.51
2019-02-20T06:41:55.881Z,88.56
2019-02-20T06:42:55.866Z,88.66
2019-02-20T06:43:55.821Z,88.56
2019-02-20T06:44:55.821Z,88.50
2019-02-20T06:45:55.845Z,88.50
2019-02-20T06:46:55.895Z,88.91
2019-02-20T06:47:55.797Z,88.60
2019-02-20T06:48:55.821Z,88.81
2019-02-20T06:49:55.818Z,88.81
2019-02-20T06:50:55.854Z,89.22
2019-02-20T06:51:55.872Z,89.64
2019-02-20T07:00:24.045Z,89.25
2019-02-20T07:01:24.027Z,88.83
2019-02-20T07:02:24.036Z,89.04
2019-02-20T07:03:24.008Z,88.62
2019-02-20T07:04:23.994Z,88.51
2019-02-20T07:05:23.993Z,88.73
2019-02-20T07:06:23.976Z,88.20
2019-02-20T07:07:23.971Z,88.83
2019-02-20T07:08:23.955Z,88.62
2019-02-20T07:09:23.938Z,88.83
2019-02-20T07:10:23.951Z,88.51
2019-02-20T07:11:23.923Z,88.83
2019-02-20T07:12:23.930Z,88.51
2019-02-20T07:13:23.906Z,88.51
2019-02-20T07:14:23.885Z,88.48
2019-02-20T07:15:23.878Z,88.79
2019-02-20T07:16:23.868Z,88.69
2019-02-20T07:17:23.865Z,88.58
2019-02-20T07:18:23.875Z,88.48
2019-02-20T07:19:23.838Z,88.48
2019-02-20T07:20:23.813Z,88.58
2019-02-20T07:21:23.825Z,88.48
2019-02-20T07:22:23.792Z,88.69
2019-02-20T07:23:23.778Z,88.27
2019-02-20T07:25:02.961Z,88.48
2019-02-20T07:25:58.951Z,88.48
2019-02-20T07:26:58.926Z,88.58
2019-02-20T07:27:59.323Z,88.64
2019-02-20T07:28:58.927Z,88.17
2019-02-20T07:29:58.898Z,87.96
2019-02-20T07:30:58.889Z,88.27
2019-02-20T07:31:58.889Z,87.96
2019-02-20T07:32:58.903Z,87.96
2019-02-20T07:33:58.849Z,88.06
2019-02-20T07:34:58.850Z,88.58
2019-02-20T07:35:58.836Z,88.02
2019-02-20T07:36:58.819Z,88.12
2019-02-20T07:37:58.794Z,88.23
2019-02-20T07:38:58.798Z,87.71
2019-02-20T07:39:58.797Z,87.40
2019-02-20T07:40:58.793Z,87.46
2019-02-20T07:41:58.808Z,87.05
2019-02-20T07:42:58.747Z,86.53
2019-02-20T07:43:58.733Z,86.49
2019-02-20T07:44:58.924Z,86.70
2019-02-20T07:45:58.889Z,86.07
2019-02-20T07:46:58.703Z,85.76
2019-02-20T07:47:58.702Z,85.97
2019-02-20T07:48:58.682Z,85.93
2019-02-20T07:49:58.664Z,85.97
2019-02-20T07:50:58.688Z,85.66
2019-02-20T07:51:58.642Z,86.04
2019-02-20T07:52:58.799Z,85.31
2019-02-20T07:53:58.625Z,84.69
2019-02-20T07:54:58.629Z,85.10
2019-02-20T07:55:58.613Z,85.21
2019-02-20T07:56:59.582Z,85.10
2019-02-20T07:57:58.590Z,84.79
2019-02-20T07:58:58.637Z,85.06
2019-02-20T07:59:58.556Z,85.27
2019-02-20T08:00:58.543Z,85.47
2019-02-20T08:01:58.540Z,85.27
2019-02-20T08:02:58.585Z,85.16
2019-02-20T08:03:58.521Z,84.85
2019-02-20T08:04:58.559Z,84.61
2019-02-20T08:05:58.514Z,84.64
2019-02-20T08:06:59.622Z,84.09
2019-02-20T08:07:58.509Z,84.09
2019-02-20T08:08:58.449Z,84.30
2019-02-20T08:09:58.465Z,84.40
2019-02-20T08:10:58.451Z,84.40
2019-02-20T08:11:58.442Z,84.30
2019-02-20T08:12:58.414Z,84.50
2019-02-20T08:13:58.414Z,84.36
2019-02-20T08:14:58.394Z,84.36
2019-02-20T08:15:58.830Z,83.85
2019-02-20T08:16:58.369Z,84.05
2019-02-20T08:17:58.390Z,83.85
2019-02-20T08:18:58.361Z,83.43
2019-02-20T08:19:58.354Z,83.91
2019-02-20T08:20:58.325Z,83.19
2019-02-20T08:21:58.326Z,82.98
2019-02-20T08:22:58.328Z,82.67
2019-02-20T08:23:58.299Z,82.98
2019-02-20T08:24:58.297Z,82.94
2019-02-20T08:25:59.733Z,83.25
2019-02-20T08:26:58.254Z,82.08
2019-02-20T08:27:58.306Z,82.32
2019-02-20T08:28:58.247Z,82.08
2019-02-20T08:29:58.235Z,82.90
2019-02-20T08:30:58.231Z,81.76
2019-02-20T08:31:58.315Z,81.93
2019-02-20T08:32:58.209Z,81.93
2019-02-20T08:33:58.187Z,81.62
2019-02-20T08:34:58.169Z,81.38
2019-02-20T08:35:58.169Z,80.65
2019-02-20T08:36:58.196Z,80.65
2019-02-20T08:37:58.148Z,80.56
2019-02-20T08:38:58.154Z,80.21
2019-02-20T08:39:58.175Z,80.10
2019-02-20T08:40:58.114Z,80.21
2019-02-20T08:41:58.094Z,80.21
2019-02-20T08:42:58.105Z,80.41
2019-02-20T08:43:58.087Z,79.79
2019-02-20T08:44:58.080Z,79.48
2019-02-20T08:45:58.081Z,80.10
2019-02-20T08:46:58.050Z,79.55
2019-02-20T08:47:58.029Z,79.96
2019-02-20T08:48:58.044Z,79.44
2019-02-20T08:49:58.026Z,80.07
2019-02-20T08:50:57.997Z,79.55
2019-02-20T08:51:57.997Z,79.34
2019-02-20T08:52:58.012Z,78.93
2019-02-20T08:53:57.980Z,79.14
2019-02-20T08:54:57.960Z,80.13
2019-02-20T08:55:57.944Z,78.93
2019-02-20T08:56:57.956Z,78.48
2019-02-20T08:57:57.931Z,78.79
2019-02-20T08:58:57.914Z,78.75
2019-02-20T08:59:57.898Z,78.24
2019-02-20T09:00:57.885Z,77.93
2019-02-20T09:01:57.882Z,78.03
2019-02-20T09:02:57.880Z,78.24
2019-02-20T09:03:57.950Z,78.44
2019-02-20T09:04:57.851Z,78.65
2019-02-20T09:05:57.838Z,77.69
2019-02-20T09:06:57.828Z,77.14
2019-02-20T09:07:57.833Z,77.34
2019-02-20T09:08:57.844Z,76.62
2019-02-20T09:09:57.855Z,76.79
2019-02-20T09:10:57.800Z,75.87
2019-02-20T09:11:57.791Z,75.87
2019-02-20T09:12:57.879Z,75.11
2019-02-20T09:13:57.745Z,75.21
2019-02-20T09:14:57.764Z,75.42
2019-02-20T09:15:57.734Z,75.32
2019-02-20T09:16:57.727Z,74.77
2019-02-20T09:17:57.745Z,75.04
2019-02-20T09:18:57.732Z,74.63
2019-02-20T09:19:57.698Z,74.22
2019-02-20T09:20:57.690Z,74.32
2019-02-20T09:21:57.699Z,74.42
2019-02-20T09:22:57.659Z,74.01
2019-02-20T09:23:57.686Z,74.08
2019-02-20T09:24:57.638Z,73.05
2019-02-20T09:25:57.632Z,73.36
2019-02-20T09:26:57.813Z,72.95
2019-02-20T09:27:57.596Z,73.33
2019-02-20T09:28:57.710Z,72.71
2019-02-20T09:29:57.577Z,72.61
2019-02-20T09:30:57.575Z,73.02
2019-02-20T09:31:57.561Z,72.37
2019-02-20T09:32:57.561Z,71.75
2019-02-20T09:33:57.535Z,71.65
2019-02-20T09:34:57.580Z,72.13
2019-02-20T09:35:58.334Z,71.72
2019-02-20T09:36:57.509Z,71.82
2019-02-20T09:37:57.508Z,71.31
2019-02-20T09:38:57.506Z,71.38
2019-02-20T09:39:57.503Z,71.28
2019-02-20T09:40:57.944Z,71.38
2019-02-20T09:41:57.458Z,71.07
2019-02-20T09:42:57.432Z,71.07
2019-02-20T09:43:57.429Z,70.97
2019-02-20T09:44:57.473Z,70.83
2019-02-20T09:45:57.423Z,69.43
2019-02-20T09:46:57.392Z,70.01
2019-02-20T09:47:57.392Z,70.01
2019-02-20T09:48:57.401Z,69.81
2019-02-20T09:49:57.368Z,69.70
2019-02-20T09:50:57.406Z,69.50
2019-02-20T09:51:57.329Z,69.19
2019-02-20T09:52:57.330Z,69.81
2019-02-20T09:53:57.312Z,69.37
2019-02-20T09:54:57.317Z,69.47
2019-02-20T09:55:57.316Z,68.75
2019-02-20T09:56:57.289Z,68.54
2019-02-20T09:57:57.350Z,68.82
2019-02-20T09:58:57.256Z,69.23
2019-02-20T09:59:57.254Z,69.13
2019-02-20T10:00:58.669Z,68.92
2019-02-20T10:01:57.988Z,68.92
2019-02-20T10:02:57.298Z,68.92
2019-02-20T10:03:57.217Z,68.51
2019-02-20T10:04:57.217Z,68.51
2019-02-20T10:05:57.190Z,67.87
2019-02-20T10:06:57.172Z,67.77
2019-02-20T10:07:57.224Z,67.46
2019-02-20T10:08:57.164Z,67.02
2019-02-20T10:09:57.148Z,67.66
2019-02-20T10:10:57.151Z,66.61
2019-02-20T10:11:57.121Z,66.91
2019-02-20T10:12:57.116Z,66.40
2019-02-20T10:13:57.093Z,67.23
2019-02-20T10:14:57.098Z,66.61
2019-02-20T10:15:58.926Z,66.10
2019-02-20T10:16:57.062Z,65.69
2019-02-20T10:17:57.064Z,65.89
2019-02-20T10:18:57.055Z,65.58
2019-02-20T10:19:57.036Z,65.79
2019-02-20T10:20:57.026Z,67.05
2019-02-20T10:21:57.020Z,66.23
2019-02-20T10:22:56.996Z,66.94
2019-02-20T10:23:56.994Z,66.64
2019-02-20T10:24:56.998Z,67.35
2019-02-20T10:26:00.865Z,66.94
2019-02-20T10:27:00.611Z,66.74
2019-02-20T10:27:56.968Z,67.05
2019-02-20T10:28:56.965Z,67.39
2019-02-20T10:29:56.916Z,66.85
2019-02-20T10:30:56.914Z,66.54
2019-02-20T10:31:56.916Z,66.64
2019-02-20T10:32:56.906Z,66.64
2019-02-20T10:33:56.894Z,65.93
2019-02-20T10:34:56.919Z,66.94
2019-02-20T10:35:56.858Z,65.82
2019-02-20T10:36:56.839Z,65.93
2019-02-20T10:37:56.832Z,65.61
2019-02-20T10:38:56.834Z,65.41
2019-02-20T10:39:57.188Z,65.72
2019-02-20T10:40:56.830Z,65.31
2019-02-20T10:41:56.805Z,65.17
2019-02-20T10:42:56.789Z,65.79
2019-02-20T10:43:56.785Z,65.52
2019-02-20T10:44:56.754Z,65.38
2019-02-20T10:45:56.753Z,64.77
2019-02-20T10:46:56.733Z,65.07
2019-02-20T10:47:56.746Z,65.69
2019-02-20T10:48:57.758Z,64.84
2019-02-20T10:49:56.701Z,64.33
2019-02-20T10:50:56.697Z,64.43
2019-02-20T10:51:56.682Z,64.22
2019-02-20T10:52:56.681Z,64.12
2019-02-20T10:53:56.677Z,64.40
2019-02-20T10:54:57.960Z,64.61
2019-02-20T10:55:56.658Z,64.09
2019-02-20T10:56:57.464Z,63.35
2019-02-20T10:57:56.634Z,63.35
2019-02-20T10:58:56.614Z,63.55
2019-02-20T10:59:56.608Z,63.11
2019-02-20T11:01:00.205Z,62.70
2019-02-20T11:01:56.629Z,62.32
2019-02-20T11:02:56.710Z,62.91
2019-02-20T11:03:57.147Z,63.11
2019-02-20T11:04:56.563Z,62.63
2019-02-20T11:05:56.531Z,62.20
2019-02-20T11:06:56.528Z,62.20
2019-02-20T11:07:58.449Z,62.40
2019-02-20T11:08:56.612Z,62.09
2019-02-20T11:09:56.499Z,62.81
2019-02-20T11:10:56.509Z,62.47
2019-02-20T11:11:56.466Z,62.37
2019-02-20T11:14:53.820Z,61.45
2019-02-20T11:15:53.855Z,61.89
2019-02-20T11:16:53.841Z,61.56
2019-02-20T11:17:53.792Z,61.15
2019-02-20T11:18:54.380Z,61.27
2019-02-20T11:19:53.776Z,60.84
2019-02-20T11:22:45.759Z,60.87
2019-02-20T11:23:45.719Z,61.38
2019-02-20T11:24:45.728Z,61.07
2019-02-20T11:25:45.970Z,61.07
2019-02-20T11:26:54.060Z,61.68
2019-02-20T11:28:10.915Z,61.99
2019-02-20T11:29:10.866Z,61.48
2019-02-20T11:30:10.846Z,61.56
2019-02-20T11:31:11.133Z,60.84
2019-02-20T11:32:11.027Z,60.51
2019-02-20T11:33:10.809Z,60.40
2019-02-20T11:34:10.794Z,60.30
2019-02-20T11:35:12.022Z,60.20
2019-02-20T11:36:10.799Z,60.20
2019-02-20T11:37:10.783Z,59.89
2019-02-20T11:38:10.777Z,59.46
2019-02-20T11:39:11.771Z,58.54
2019-02-20T11:40:10.750Z,58.13
2019-02-20T11:41:10.728Z,58.44
2019-02-20T11:42:10.734Z,58.92
2019-02-20T11:43:10.706Z,59.42
2019-02-20T11:44:10.687Z,59.22
2019-02-20T11:45:17.210Z,58.00
2019-02-20T11:46:35.701Z,57.97
2019-02-20T11:47:35.696Z,57.87
2019-02-20T11:48:35.683Z,58.41
2019-02-20T11:49:35.666Z,59.22
2019-02-20T11:50:35.764Z,58.61
2019-02-20T11:51:35.658Z,58.99
2019-02-20T11:52:38.349Z,57.67
2019-02-20T11:53:37.430Z,57.87
2019-02-20T11:54:35.709Z,57.95
2019-02-20T11:55:35.648Z,57.64
2019-02-20T11:56:35.595Z,57.95
2019-02-20T11:57:35.576Z,57.84
2019-02-20T11:58:35.621Z,57.95
2019-02-20T11:59:35.560Z,58.05
2019-02-20T12:00:35.566Z,57.34
2019-02-20T12:01:35.530Z,56.62
2019-02-20T12:02:37.558Z,56.42
2019-02-20T12:03:35.522Z,57.13
2019-02-20T12:04:35.500Z,56.42
2019-02-20T12:05:35.494Z,56.52
2019-02-20T12:06:35.481Z,56.42
2019-02-20T12:07:35.561Z,55.60
2019-02-20T12:08:35.549Z,55.73
2019-02-20T12:09:35.452Z,56.14
2019-02-20T12:10:36.699Z,55.73
2019-02-20T12:11:35.421Z,55.73
2019-02-20T12:12:35.438Z,56.54
2019-02-20T12:13:35.401Z,55.84
2019-02-20T12:14:36.066Z,56.75
2019-02-20T12:15:35.378Z,55.93
2019-02-20T12:16:35.368Z,54.91
2019-02-20T12:17:35.368Z,55.20
2019-02-20T12:18:35.460Z,55.71
2019-02-20T12:19:35.339Z,55.50
2019-02-20T12:20:35.336Z,55.40
2019-02-20T12:21:35.323Z,54.66
2019-02-20T12:22:35.414Z,55.20
2019-02-20T12:23:36.882Z,55.07
2019-02-20T12:24:35.393Z,54.76
2019-02-20T12:25:35.294Z,55.27
2019-02-20T12:26:35.486Z,55.07
2019-02-20T12:27:35.271Z,54.56
2019-02-20T12:28:35.300Z,54.76
2019-02-20T12:29:35.247Z,53.24
2019-02-20T12:30:35.224Z,53.67
2019-02-20T12:31:35.421Z,54.66
2019-02-20T12:32:35.204Z,54.66
2019-02-20T12:33:35.207Z,54.26
2019-02-20T12:34:35.202Z,54.46
2019-02-20T12:35:35.228Z,53.95
2019-02-20T12:36:35.153Z,54.15
2019-02-20T12:37:35.169Z,53.41
2019-02-20T12:38:37.109Z,54.20
2019-02-20T12:39:35.122Z,54.54
2019-02-20T12:40:35.238Z,53.28
2019-02-20T12:41:35.196Z,53.19
2019-02-20T12:42:35.087Z,53.49
2019-02-20T12:43:35.090Z,53.19
2019-02-20T12:44:35.072Z,52.65
2019-02-20T12:45:35.069Z,53.08
2019-02-20T12:46:35.127Z,52.25
2019-02-20T12:47:35.041Z,52.37
2019-02-20T12:48:35.029Z,52.96
2019-02-20T12:49:35.037Z,52.86
2019-02-20T12:50:35.007Z,52.65
2019-02-20T12:51:34.992Z,52.65
2019-02-20T12:52:34.976Z,52.65
2019-02-20T12:53:35.029Z,52.32
2019-02-20T12:54:34.961Z,51.31
2019-02-20T12:55:34.970Z,50.59
2019-02-20T12:56:34.957Z,52.12
2019-02-20T12:57:34.923Z,51.69
2019-02-20T12:58:34.930Z,51.20
2019-02-20T12:59:36.673Z,51.41
2019-02-20T13:00:34.895Z,51.79
2019-02-20T13:01:34.884Z,51.11
2019-02-20T13:02:36.120Z,50.19
2019-02-20T13:03:34.924Z,51.28
2019-02-20T13:04:34.890Z,49.58
2019-02-20T13:05:34.910Z,50.39
2019-02-20T13:06:35.373Z,51.20
2019-02-20T13:07:34.853Z,52.02
2019-02-20T13:08:34.811Z,51.41
2019-02-20T13:09:34.792Z,51.41
2019-02-20T13:10:38.516Z,51.94
2019-02-20T13:11:34.772Z,52.02
2019-02-20T13:12:34.776Z,51.44
2019-02-20T13:13:34.754Z,50.62
2019-02-20T13:14:34.734Z,50.39
2019-02-20T13:15:34.748Z,50.42
2019-02-20T13:16:34.731Z,49.68
2019-02-20T13:17:34.708Z,50.21
2019-02-20T13:18:34.717Z,50.34
2019-02-20T13:19:34.694Z,51.77
2019-02-20T13:20:34.738Z,51.36
2019-02-20T13:21:34.666Z,51.74
2019-02-20T13:22:34.663Z,51.33
2019-02-20T14:05:06.768Z,54.35
2019-02-20T14:10:46.814Z,54.76
2019-02-20T14:11:46.788Z,55.07
2019-02-20T14:12:47.102Z,55.17
2019-02-20T14:13:46.902Z,54.76
2019-02-20T14:14:46.782Z,55.17
2019-02-20T14:15:46.751Z,54.76
2019-02-20T14:16:46.736Z,54.66
2019-02-20T14:17:46.736Z,54.56
2019-02-20T14:18:46.718Z,54.35
2019-02-20T14:19:46.712Z,54.26
2019-02-20T14:20:46.721Z,54.26
2019-02-20T14:21:46.706Z,53.64
2019-02-20T14:22:46.695Z,53.34
2019-02-20T14:23:46.664Z,54.35
2019-02-20T14:24:46.661Z,54.84
2019-02-20T14:25:46.658Z,53.54
2019-02-20T14:26:46.639Z,53.44
2019-02-20T14:27:46.674Z,53.67
2019-02-20T14:28:46.631Z,54.99
2019-02-20T14:29:46.603Z,54.79
2019-02-20T14:30:46.614Z,53.87
2019-02-20T14:31:46.576Z,54.28
2019-02-20T14:32:46.574Z,54.48
2019-02-20T14:33:46.578Z,54.18
2019-02-20T14:34:46.559Z,54.89
2019-02-20T14:35:46.533Z,54.69
2019-02-20T14:36:46.529Z,55.22
2019-02-20T14:37:46.519Z,55.81
2019-02-20T14:38:46.526Z,55.43
2019-02-20T14:39:46.495Z,55.84
2019-02-20T14:40:46.503Z,56.45
2019-02-20T14:41:46.467Z,56.54
2019-02-20T14:42:46.477Z,56.24
2019-02-20T14:43:46.475Z,56.54
2019-02-20T14:44:46.440Z,56.04
2019-02-20T14:45:46.429Z,56.57
2019-02-20T14:46:46.419Z,57.18
2019-02-20T14:47:46.425Z,57.08
2019-02-20T14:48:47.378Z,57.18
2019-02-20T14:49:46.390Z,55.96
2019-02-20T14:50:46.386Z,56.67
2019-02-20T14:51:46.364Z,56.88
2019-02-20T14:52:46.343Z,57.18
2019-02-20T14:53:46.380Z,57.62
2019-02-20T14:54:46.326Z,57.21
2019-02-20T14:55:46.327Z,57.42
2019-02-20T14:56:46.367Z,57.18
2019-02-20T14:57:46.315Z,57.83
2019-02-20T14:58:46.403Z,57.51
2019-02-20T14:59:46.269Z,57.42
2019-02-20T15:00:46.272Z,57.62
2019-02-20T15:01:46.253Z,57.21
2019-02-20T15:02:46.241Z,57.11
2019-02-20T15:03:46.245Z,57.72
2019-02-20T15:04:46.223Z,57.31
2019-02-20T15:05:47.961Z,57.62
2019-02-20T15:06:46.189Z,57.62
2019-02-20T15:07:46.178Z,57.75
2019-02-20T15:08:46.210Z,57.83
2019-02-20T15:09:47.351Z,57.42
2019-02-20T15:10:46.161Z,57.62
2019-02-20T15:11:46.145Z,57.72
2019-02-20T15:12:46.754Z,57.62
2019-02-20T15:13:46.115Z,57.51
2019-02-20T15:14:47.609Z,57.11
2019-02-20T15:15:47.469Z,57.42
2019-02-20T15:16:46.113Z,57.42
2019-02-20T15:17:46.068Z,57.21
2019-02-20T15:18:46.067Z,57.21
2019-02-20T15:19:46.056Z,57.01
2019-02-20T15:20:46.047Z,57.31
2019-02-20T15:21:46.037Z,57.11
2019-02-20T15:22:46.046Z,57.72
2019-02-20T15:23:46.025Z,57.11
2019-02-20T15:24:46.011Z,57.21
2019-02-20T15:25:45.988Z,57.31
2019-02-20T15:26:46.110Z,57.42
2019-02-20T15:27:45.959Z,57.42
2019-02-20T15:28:45.972Z,57.92
2019-02-20T15:29:45.943Z,57.95
2019-02-20T15:30:45.931Z,58.03
2019-02-20T15:31:45.924Z,57.83
2019-02-20T15:32:45.909Z,58.03
2019-02-20T15:33:45.943Z,57.95
2019-02-20T15:34:45.887Z,58.26
2019-02-20T15:35:45.878Z,57.85
2019-02-20T15:36:45.871Z,58.08
2019-02-20T15:37:45.856Z,57.95
2019-02-20T15:38:45.842Z,58.16
2019-02-20T15:39:45.830Z,58.36
2019-02-20T15:40:45.830Z,57.95
2019-02-20T15:41:45.814Z,58.49
2019-02-20T15:42:45.823Z,58.08
2019-02-20T15:43:45.845Z,58.90
2019-02-20T15:44:45.780Z,58.69
2019-02-20T15:45:45.799Z,58.59
2019-02-20T15:46:45.799Z,58.59
2019-02-20T15:47:45.745Z,57.87
2019-02-20T15:48:45.726Z,57.87
2019-02-20T15:49:45.730Z,58.39
2019-02-20T15:50:45.715Z,58.39
2019-02-20T15:51:45.699Z,58.08
2019-02-20T15:52:45.701Z,57.98
2019-02-20T15:53:45.790Z,59.51
2019-02-20T15:54:45.719Z,57.87
2019-02-20T15:55:45.662Z,58.19
2019-02-20T15:56:45.642Z,58.59
2019-02-20T15:57:45.634Z,59.10
2019-02-20T15:58:45.663Z,58.80
2019-02-20T15:59:45.607Z,58.69
2019-02-20T16:00:45.613Z,59.41
2019-02-20T16:01:45.596Z,59.31
2019-02-20T16:02:45.584Z,58.90
2019-02-20T16:03:45.584Z,59.41
2019-02-20T16:04:45.558Z,59.00
2019-02-20T16:05:45.561Z,59.10
2019-02-20T16:06:45.538Z,59.10
2019-02-20T16:07:45.524Z,59.31
2019-02-20T16:08:45.520Z,58.90
2019-02-20T16:09:45.496Z,59.10
2019-02-20T16:10:45.617Z,59.00
2019-02-20T16:11:45.485Z,58.69
2019-02-20T16:12:45.481Z,59.00
2019-02-20T16:13:45.477Z,59.13
2019-02-20T16:14:45.476Z,59.41
2019-02-20T16:15:45.435Z,59.54
2019-02-20T16:16:45.537Z,58.90
2019-02-20T16:17:45.463Z,59.00
2019-02-20T16:18:45.416Z,59.74
2019-02-20T16:19:45.392Z,59.54
2019-02-20T16:20:45.393Z,59.54
2019-02-20T16:21:45.385Z,59.74
2019-02-20T16:22:45.378Z,59.44
2019-02-20T16:23:45.349Z,59.54
2019-02-20T16:24:45.335Z,59.64
2019-02-20T16:25:45.331Z,59.54
2019-02-20T16:26:45.426Z,59.74
2019-02-20T16:27:47.443Z,59.33
2019-02-20T16:28:45.304Z,59.54
2019-02-20T16:29:45.285Z,60.26
2019-02-20T16:30:45.282Z,59.54
2019-02-20T16:31:45.312Z,59.57
2019-02-20T16:32:45.257Z,59.54
2019-02-20T16:33:45.300Z,59.74
2019-02-20T16:34:45.231Z,59.67
2019-02-20T16:35:45.247Z,59.23
2019-02-20T16:36:45.213Z,59.46
2019-02-20T16:37:45.205Z,59.54
2019-02-20T16:38:45.205Z,59.57
2019-02-20T16:39:45.182Z,59.67
2019-02-20T16:40:45.172Z,59.36
2019-02-20T16:41:45.169Z,59.36
2019-02-20T16:42:45.216Z,59.77
2019-02-20T16:43:45.222Z,59.67
2019-02-20T16:44:45.714Z,59.46
2019-02-20T16:45:45.108Z,59.57
2019-02-20T16:46:45.139Z,59.49
2019-02-20T16:47:45.091Z,60.31
2019-02-20T16:48:45.078Z,60.21
2019-02-20T16:49:45.068Z,59.90
2019-02-20T16:50:45.076Z,60.11
2019-02-20T16:51:45.059Z,60.00
2019-02-20T16:52:45.040Z,59.80
2019-02-20T16:53:45.026Z,60.24
2019-02-20T16:54:45.043Z,60.00
2019-02-20T16:55:45.004Z,59.93
2019-02-20T16:56:44.996Z,60.11
2019-02-20T16:57:45.049Z,59.93
2019-02-20T16:58:44.985Z,59.70
2019-02-20T16:59:44.969Z,59.93
2019-02-20T17:00:44.949Z,59.62
2019-02-20T17:01:44.941Z,59.83
2019-02-20T17:02:44.931Z,59.83
2019-02-20T17:03:44.921Z,60.44
2019-02-20T17:04:44.911Z,60.34
2019-02-20T17:05:44.915Z,60.44
2019-02-20T17:06:44.894Z,60.65
2019-02-20T17:07:44.870Z,60.44
2019-02-20T17:08:44.889Z,60.34
2019-02-20T17:09:44.849Z,60.47
2019-02-20T17:10:44.843Z,61.39
2019-02-20T17:11:44.833Z,61.18
2019-02-20T17:12:44.832Z,61.49
2019-02-20T17:13:44.830Z,61.29
2019-02-20T17:14:44.800Z,60.98
2019-02-20T17:15:44.784Z,61.49
2019-02-20T17:16:44.777Z,61.52
2019-02-20T17:17:44.784Z,61.83
2019-02-20T17:18:44.774Z,61.21
2019-02-20T17:19:44.825Z,61.83
2019-02-20T17:20:44.737Z,61.62
2019-02-20T17:21:46.053Z,61.24
2019-02-20T17:22:44.715Z,62.17
2019-02-20T17:23:44.697Z,62.06
2019-02-20T17:24:44.695Z,62.27
2019-02-20T17:25:44.675Z,62.09
2019-02-20T17:27:44.651Z,62.81
2019-02-20T17:28:44.654Z,62.91
2019-02-20T17:29:44.637Z,63.22
2019-02-20T18:27:09.444Z,72.02
2019-02-20T20:11:08.332Z,83.56
2019-02-20T20:12:08.306Z,83.87
2019-02-20T20:19:08.326Z,84.11
2019-02-20T20:40:07.980Z,87.30
2019-02-20T20:41:09.173Z,86.68
2019-02-20T20:43:07.976Z,87.40
2019-02-20T20:46:07.929Z,87.40
2019-02-20T20:47:07.907Z,88.44
2019-02-20T20:48:11.995Z,87.82
2019-02-20T20:52:07.861Z,87.92
2019-02-20T20:53:07.864Z,88.03
2019-02-20T20:55:07.831Z,88.48
2019-02-20T20:56:07.807Z,88.03
2019-02-20T20:57:07.801Z,88.17
2019-02-20T20:58:07.786Z,88.48
2019-02-20T20:59:17.225Z,88.48
2019-02-20T21:00:32.658Z,88.69
2019-02-20T21:01:32.645Z,88.58
2019-02-20T21:02:32.630Z,88.38
2019-02-20T21:03:32.622Z,88.17
2019-02-20T21:04:32.615Z,88.48
2019-02-20T21:05:32.596Z,88.79
2019-02-20T21:06:32.583Z,88.48
2019-02-20T21:07:32.570Z,88.38
2019-02-20T21:08:32.570Z,88.48
2019-02-20T21:09:32.549Z,88.58
2019-02-20T21:10:32.552Z,88.48
2019-02-20T21:11:32.541Z,88.79
2019-02-20T21:12:32.519Z,88.58
2019-02-20T21:13:34.773Z,88.79
2019-02-20T21:14:32.501Z,88.58
2019-02-20T21:15:32.500Z,88.48
2019-02-20T21:16:32.535Z,88.48
2019-02-20T21:17:32.462Z,88.38
2019-02-20T21:18:32.452Z,88.28
2019-02-20T21:19:32.466Z,88.48
2019-02-20T21:20:32.432Z,88.69
2019-02-20T21:21:32.434Z,88.58
2019-02-20T21:22:32.417Z,88.48
2019-02-20T21:23:32.415Z,88.52
2019-02-20T21:24:32.388Z,88.52
2019-02-20T21:25:32.383Z,88.69
2019-02-20T21:26:32.367Z,89.00
2019-02-20T21:27:32.353Z,88.94
2019-02-20T21:28:32.345Z,88.48
2019-02-20T21:29:32.348Z,88.94
2019-02-20T21:30:32.555Z,88.94
2019-02-20T21:31:32.319Z,88.62
2019-02-20T21:32:32.301Z,88.94
2019-02-20T21:33:32.285Z,88.73
2019-02-20T21:34:32.279Z,88.94
2019-02-20T21:35:32.262Z,88.73
2019-02-20T21:37:32.247Z,88.94
2019-02-20T21:38:32.237Z,88.94
2019-02-20T21:39:32.236Z,88.83
2019-02-20T21:40:32.243Z,89.56
2019-02-20T21:41:32.210Z,89.81
2019-02-20T21:42:32.190Z,89.81
2019-02-20T21:43:32.198Z,89.77
2019-02-20T21:44:32.173Z,89.81
2019-02-20T21:45:32.154Z,89.60
2019-02-20T21:46:32.161Z,90.12
2019-02-20T21:47:32.147Z,89.70
2019-02-20T21:48:32.126Z,90.53
2019-02-20T21:49:32.135Z,90.18
2019-02-20T21:50:32.104Z,89.56
2019-02-20T21:51:32.186Z,90.08
2019-02-20T21:52:32.097Z,90.22
2019-02-20T21:53:32.078Z,89.70
2019-02-20T21:54:32.090Z,89.50
2019-02-20T21:55:32.100Z,89.56
2019-02-20T21:56:32.035Z,89.70
2019-02-20T21:57:32.027Z,90.02
2019-02-20T21:58:33.152Z,89.66
2019-02-20T21:59:38.934Z,89.66
2019-02-20T22:00:56.995Z,89.19
2019-02-20T22:01:56.921Z,90.22
2019-02-20T22:02:56.911Z,89.91
2019-02-20T22:03:56.898Z,89.91
2019-02-20T22:04:56.886Z,89.91
2019-02-20T22:05:58.493Z,90.12
2019-02-20T22:07:56.855Z,90.12
2019-02-20T22:08:56.846Z,90.22
2019-02-20T22:09:58.401Z,89.91
2019-02-20T22:10:56.818Z,90.47
2019-02-20T22:11:56.807Z,89.95
2019-02-20T22:12:56.806Z,91.10
2019-02-20T22:13:56.783Z,90.27
2019-02-20T22:14:56.776Z,90.47
2019-02-20T22:15:56.782Z,90.58
2019-02-20T22:16:56.752Z,90.99
2019-02-20T22:17:56.747Z,90.47
2019-02-20T22:18:56.739Z,91.72
2019-02-20T22:19:56.799Z,90.78
2019-02-20T22:20:56.724Z,90.58
2019-02-20T22:21:56.706Z,90.99
2019-02-20T22:22:56.694Z,90.16
2019-02-20T22:23:56.673Z,90.78
2019-02-20T22:24:56.679Z,90.68
2019-02-20T22:25:56.649Z,90.58
2019-02-20T22:26:56.647Z,90.99
2019-02-20T22:27:56.631Z,90.41
2019-02-20T22:28:56.633Z,90.99
2019-02-20T22:29:56.625Z,91.30
2019-02-20T22:30:56.609Z,91.10
2019-02-20T22:31:56.593Z,91.61
2019-02-20T22:32:56.572Z,90.27
2019-02-20T22:33:56.573Z,90.37
2019-02-20T22:34:56.570Z,90.47
2019-02-20T22:35:56.546Z,90.51
2019-02-20T22:36:56.539Z,91.41
2019-02-20T22:37:56.522Z,91.10
2019-02-20T22:38:56.515Z,91.13
2019-02-20T22:39:56.543Z,90.99
2019-02-20T22:40:56.500Z,91.10
2019-02-20T22:41:56.476Z,90.99
2019-02-20T22:42:56.467Z,90.78
2019-02-20T22:43:56.458Z,90.51
2019-02-20T22:44:56.451Z,90.47
2019-02-20T22:45:56.433Z,90.68
2019-02-20T22:46:56.459Z,90.68
2019-02-20T22:47:56.428Z,90.68
2019-02-20T22:48:56.398Z,90.78
2019-02-20T22:49:56.611Z,91.10
2019-02-20T22:50:56.376Z,90.68
2019-02-20T22:51:56.399Z,90.53
2019-02-20T22:52:56.373Z,90.53
2019-02-20T22:53:56.364Z,90.95
2019-02-20T22:54:56.338Z,90.02
2019-02-20T22:55:56.326Z,89.75
2019-02-20T22:56:56.324Z,90.16
2019-02-20T22:57:56.312Z,90.74
2019-02-20T22:58:56.317Z,90.95
2019-02-20T23:00:02.031Z,90.47
2019-02-20T23:01:22.167Z,90.58
2019-02-20T23:02:22.140Z,91.47
2019-02-20T23:03:22.133Z,90.74
2019-02-20T23:04:22.125Z,90.68
2019-02-20T23:05:22.113Z,90.47
2019-02-20T23:06:22.098Z,90.64
2019-02-20T23:07:22.098Z,90.53
2019-02-20T23:08:22.105Z,90.64
2019-02-20T23:09:22.068Z,90.95
2019-02-20T23:10:22.058Z,90.12
2019-02-20T23:11:22.047Z,89.70